Time;durP1;ratioP1;P1;durP2;ratioP2;P2;SDS_P1;SDS_P2;PMS_P1;PMS_P2;Temp;Humidity;BMP_temperature;BMP_pressure;BME280_temperature;BME280_humidity;BME280_pressure;Samples;Min_cycle;Max_cycle;Signal;HPM_P1;HPM_P2
2022/04/16 00:00:56;;;;;;;11.25;7.72;;;;;;;15.08;100.00;100869.22;5032234;28;20052;-75
2022/04/16 00:03:41;;;;;;;12.95;8.25;;;;;;;14.88;100.00;100866.38;5035107;28;20021;-75
2022/04/16 00:06:27;;;;;;;16.30;8.85;;;;;;;15.12;100.00;100866.44;5037713;28;20043;-75
2022/04/16 00:09:13;;;;;;;12.23;9.25;;;;;;;15.07;100.00;100864.84;5038726;28;20030;-76
2022/04/16 00:11:59;;;;;;;15.25;10.48;;;;;;;14.83;100.00;100867.38;5038245;28;20445;-75
2022/04/16 00:14:44;;;;;;;15.55;11.02;;;;;;;14.72;100.00;100866.84;5036496;28;20040;-75
2022/04/16 00:17:30;;;;;;;15.38;12.20;;;;;;;14.82;100.00;100876.22;5034884;28;20473;-75
2022/04/16 00:20:16;;;;;;;16.65;11.95;;;;;;;14.72;100.00;100863.38;5033885;28;20037;-76
2022/04/16 00:23:02;;;;;;;14.98;11.00;;;;;;;14.77;100.00;100857.03;5035589;28;20025;-75
2022/04/16 00:25:49;;;;;;;16.20;11.63;;;;;;;14.51;100.00;100853.50;5035047;28;20030;-76
2022/04/16 00:28:35;;;;;;;18.88;11.32;;;;;;;14.33;100.00;100851.41;5039517;28;20041;-74
2022/04/16 00:31:21;;;;;;;18.75;12.13;;;;;;;14.47;100.00;100850.06;5037827;28;20162;-75
2022/04/16 00:34:06;;;;;;;18.33;11.05;;;;;;;14.35;100.00;100855.72;5038464;28;20025;-75
2022/04/16 00:36:52;;;;;;;19.17;11.68;;;;;;;14.45;100.00;100840.50;5040985;28;20115;-76
2022/04/16 00:39:38;;;;;;;18.35;12.13;;;;;;;14.18;100.00;100844.81;5036801;28;20017;-76
2022/04/16 00:42:23;;;;;;;16.60;11.82;;;;;;;14.31;100.00;100843.56;5036654;28;20083;-76
2022/04/16 00:45:10;;;;;;;19.42;12.98;;;;;;;14.40;100.00;100840.63;5037021;28;20034;-75
2022/04/16 00:47:57;;;;;;;17.55;12.10;;;;;;;14.46;100.00;100837.81;5036213;28;20049;-73
2022/04/16 00:50:43;;;;;;;19.48;12.93;;;;;;;14.32;100.00;100839.16;5035476;28;20029;-76
2022/04/16 00:53:30;;;;;;;16.90;12.50;;;;;;;14.39;100.00;100836.28;5046170;28;20036;-73
2022/04/16 00:56:15;;;;;;;20.52;12.57;;;;;;;14.78;100.00;100834.13;5036419;28;20021;-75
2022/04/16 00:59:01;;;;;;;17.50;11.93;;;;;;;14.28;100.00;100830.47;5036350;28;20108;-76
2022/04/16 01:01:47;;;;;;;17.48;11.65;;;;;;;14.25;100.00;100827.06;5037424;28;20040;-75
2022/04/16 01:04:33;;;;;;;17.85;12.05;;;;;;;14.48;100.00;100822.78;5041299;28;20029;-75
2022/04/16 01:07:25;;;;;;;19.60;12.65;;;;;;;14.37;100.00;100826.69;5040723;28;20358;-75
2022/04/16 01:10:11;;;;;;;27.42;12.68;;;;;;;14.42;100.00;100830.03;5040117;28;20409;-75
2022/04/16 01:12:59;;;;;;;18.05;12.68;;;;;;;14.07;100.00;100827.59;5041001;28;20033;-75
2022/04/16 01:15:45;;;;;;;19.05;12.60;;;;;;;14.01;100.00;100822.50;5042736;28;20036;-75
2022/04/16 01:18:32;;;;;;;16.92;11.52;;;;;;;13.79;100.00;100824.91;5043107;28;20033;-75
2022/04/16 01:21:18;;;;;;;18.23;12.52;;;;;;;14.22;100.00;100819.25;5041054;28;20037;-75
2022/04/16 01:24:09;;;;;;;19.42;12.13;;;;;;;14.26;100.00;100819.13;5040582;28;20026;-75
2022/04/16 01:26:55;;;;;;;18.95;12.23;;;;;;;14.21;100.00;100822.81;5040296;28;20030;-76
2022/04/16 01:29:41;;;;;;;20.65;12.55;;;;;;;14.28;100.00;100817.28;5041124;28;20088;-75
2022/04/16 01:32:27;;;;;;;19.35;11.85;;;;;;;13.82;100.00;100821.31;5040648;28;20030;-74
2022/04/16 01:35:14;;;;;;;16.30;11.68;;;;;;;14.15;100.00;100813.28;5042413;28;20115;-75
2022/04/16 01:38:05;;;;;;;13.98;11.30;;;;;;;14.09;100.00;100825.78;5039626;28;20036;-77
2022/04/16 01:40:53;;;;;;;14.45;10.80;;;;;;;14.13;100.00;100822.13;5041425;28;20026;-75
2022/04/16 01:43:38;;;;;;;13.18;9.23;;;;;;;14.06;100.00;100825.84;5037381;28;20026;-75
2022/04/16 01:46:24;;;;;;;13.98;8.73;;;;;;;14.03;100.00;100828.59;5038575;28;20063;-74
2022/04/16 01:49:10;;;;;;;10.88;7.97;;;;;;;14.20;100.00;100835.06;5037787;28;20025;-75
2022/04/16 01:51:57;;;;;;;9.80;7.72;;;;;;;14.39;100.00;100831.00;5035486;28;20520;-76
2022/04/16 01:54:43;;;;;;;11.05;7.28;;;;;;;14.49;100.00;100835.09;5035730;28;20033;-75
2022/04/16 01:57:28;;;;;;;8.40;7.03;;;;;;;14.41;100.00;100839.75;5034430;28;20044;-77
2022/04/16 02:00:14;;;;;;;10.10;6.55;;;;;;;14.32;100.00;100842.63;5034915;28;20044;-75
2022/04/16 02:03:00;;;;;;;11.00;6.55;;;;;;;14.58;100.00;100837.44;5035156;28;20035;-75
2022/04/16 02:05:46;;;;;;;9.65;6.70;;;;;;;14.33;100.00;100841.75;5034575;28;20061;-75
2022/04/16 02:08:32;;;;;;;13.13;6.40;;;;;;;14.44;100.00;100836.97;5033959;28;20052;-75
2022/04/16 02:11:18;;;;;;;10.88;6.43;;;;;;;14.31;100.00;100847.97;5034042;28;20025;-75
2022/04/16 02:14:04;;;;;;;8.50;5.90;;;;;;;14.30;100.00;100841.84;5034971;28;20021;-76
2022/04/16 02:16:50;;;;;;;6.90;5.63;;;;;;;14.37;100.00;100848.66;5035265;28;20457;-75
2022/04/16 02:19:38;;;;;;;9.90;6.00;;;;;;;14.48;100.00;100843.03;5034837;28;20049;-75
2022/04/16 02:22:24;;;;;;;8.40;5.68;;;;;;;14.40;100.00;100840.63;5035511;28;20103;-76
2022/04/16 02:25:10;;;;;;;7.85;5.63;;;;;;;14.64;100.00;100847.75;5033987;28;20056;-76
2022/04/16 02:27:56;;;;;;;7.82;5.68;;;;;;;14.45;100.00;100841.38;5034455;28;20354;-74
2022/04/16 02:30:42;;;;;;;8.75;6.03;;;;;;;14.39;100.00;100845.97;5035612;28;20394;-76
2022/04/16 02:33:30;;;;;;;8.48;5.80;;;;;;;14.53;100.00;100835.84;5034303;28;20033;-75
2022/04/16 02:36:16;;;;;;;7.22;5.50;;;;;;;14.45;100.00;100838.72;5035430;28;20057;-76
2022/04/16 02:39:03;;;;;;;7.20;5.50;;;;;;;14.48;100.00;100841.25;5035030;28;20113;-75
2022/04/16 02:41:49;;;;;;;8.75;5.53;;;;;;;14.66;99.50;100839.81;5034965;28;20029;-76
2022/04/16 02:47:39;;;;;;;8.13;5.38;;;;;;;14.12;100.00;100852.88;5034134;28;20537;-76
2022/04/16 02:50:25;;;;;;;9.50;5.60;;;;;;;14.14;100.00;100843.16;5032915;28;20034;-76
2022/04/16 02:53:11;;;;;;;11.50;5.70;;;;;;;14.31;100.00;100843.56;5034201;28;20034;-76
2022/04/16 02:55:57;;;;;;;8.98;6.05;;;;;;;14.28;100.00;100842.78;5033742;28;20087;-76
2022/04/16 02:58:43;;;;;;;10.63;6.13;;;;;;;14.21;100.00;100847.41;5033667;28;20022;-76
2022/04/16 03:01:29;;;;;;;8.63;5.90;;;;;;;14.15;100.00;100841.41;5034283;28;20036;-76
2022/04/16 03:04:15;;;;;;;9.02;5.90;;;;;;;14.35;100.00;100842.53;5033559;28;20025;-76
2022/04/16 03:07:03;;;;;;;9.32;5.75;;;;;;;14.07;100.00;100843.41;5033062;28;20432;-76
2022/04/16 03:09:48;;;;;;;12.55;6.45;;;;;;;14.21;100.00;100835.97;5032971;28;20321;-75
2022/04/16 03:12:48;;;;;;;10.63;6.43;;;;;;;14.15;100.00;100842.25;5037719;28;20202;-74
2022/04/16 03:18:38;;;;;;;21.90;8.75;;;;;;;13.59;100.00;100845.66;5034191;28;20082;-75
2022/04/16 03:21:24;;;;;;;21.63;9.75;;;;;;;13.59;100.00;100850.91;5033232;28;20038;-76
2022/04/16 03:24:10;;;;;;;14.05;9.27;;;;;;;13.52;100.00;100849.38;5034124;28;20106;-75
2022/04/16 03:26:56;;;;;;;21.35;9.48;;;;;;;13.79;100.00;100843.31;5033054;28;20021;-76
2022/04/16 03:29:41;;;;;;;12.55;8.80;;;;;;;13.58;100.00;100843.94;5034273;28;20470;-76
2022/04/16 03:32:27;;;;;;;14.80;9.23;;;;;;;13.74;100.00;100850.50;5033056;28;20399;-75
2022/04/16 03:35:13;;;;;;;16.63;9.23;;;;;;;13.33;100.00;100852.53;5033753;28;20037;-76
2022/04/16 03:37:59;;;;;;;19.33;9.38;;;;;;;13.24;100.00;100850.16;5032750;28;20056;-76
2022/04/16 03:40:48;;;;;;;15.70;9.02;;;;;;;12.78;100.00;100863.56;5032298;28;20030;-77
2022/04/16 03:43:33;;;;;;;14.30;8.52;;;;;;;12.39;100.00;100863.63;5032928;28;20112;-77
2022/04/16 03:46:19;;;;;;;11.27;7.80;;;;;;;11.97;100.00;100870.66;5033075;28;20424;-76
2022/04/16 03:49:05;;;;;;;11.50;6.75;;;;;;;12.04;100.00;100871.41;5032714;28;20033;-76
2022/04/16 03:51:50;;;;;;;12.93;7.30;;;;;;;12.30;100.00;100869.94;5033006;28;20032;-77
2022/04/16 04:00:45;;;;;;;16.90;7.18;;;;;;;12.36;100.00;100859.31;5033440;28;20079;-76
2022/04/16 04:03:31;;;;;;;12.95;7.93;;;;;;;12.39;100.00;100859.25;5032408;28;20366;-76
2022/04/16 04:06:17;;;;;;;222.75;73.28;;;;;;;12.51;100.00;100852.84;5033186;28;20064;-76
2022/04/16 04:09:03;;;;;;;244.35;103.57;;;;;;;12.45;100.00;100856.47;5032754;28;20358;-75
2022/04/16 04:11:50;;;;;;;78.60;37.13;;;;;;;12.61;100.00;100864.84;5032534;28;20119;-75
2022/04/16 04:14:46;;;;;;;47.65;22.73;;;;;;;12.71;100.00;100874.25;5032851;28;20080;-76
2022/04/16 04:17:33;;;;;;;26.05;14.82;;;;;;;12.58;100.00;100873.66;5032135;28;20031;-76
2022/04/16 04:20:19;;;;;;;19.83;11.57;;;;;;;12.50;100.00;100880.88;5032679;28;20438;-75
2022/04/16 04:23:05;;;;;;;17.08;10.23;;;;;;;12.61;100.00;100896.38;5032811;28;20033;-76
2022/04/16 04:25:51;;;;;;;14.13;8.57;;;;;;;12.69;100.00;100884.81;5032709;28;20026;-76
2022/04/16 04:28:37;;;;;;;14.05;8.20;;;;;;;12.56;100.00;100893.88;5032826;28;20036;-76
2022/04/16 04:31:22;;;;;;;12.50;8.15;;;;;;;12.75;100.00;100892.56;5032053;28;20029;-76
2022/04/16 04:34:08;;;;;;;10.73;7.68;;;;;;;12.68;100.00;100897.97;5032538;28;20370;-76
2022/04/16 04:36:54;;;;;;;13.10;7.90;;;;;;;12.24;100.00;100906.84;5031867;28;20029;-76
2022/04/16 04:39:39;;;;;;;11.98;8.43;;;;;;;12.53;100.00;100901.81;5032637;28;20029;-76
2022/04/16 04:42:27;;;;;;;9.93;7.30;;;;;;;12.61;100.00;100907.78;5032852;28;20022;-77
2022/04/16 04:45:14;;;;;;;15.27;7.55;;;;;;;12.76;100.00;100896.91;5032246;28;20033;-76
2022/04/16 04:48:00;;;;;;;16.38;7.35;;;;;;;13.00;100.00;100904.25;5031729;28;20147;-77
2022/04/16 04:50:46;;;;;;;12.88;7.80;;;;;;;12.84;100.00;100923.91;5031635;28;20052;-76
2022/04/16 04:53:31;;;;;;;11.20;6.90;;;;;;;12.72;100.00;100920.66;5032040;28;20524;-76
2022/04/16 04:56:17;;;;;;;11.73;7.68;;;;;;;13.48;100.00;100915.31;5032607;28;20362;-76
2022/04/16 04:59:03;;;;;;;10.15;7.63;;;;;;;13.42;100.00;100926.84;5033218;28;20040;-76
2022/04/16 05:01:49;;;;;;;14.07;7.60;;;;;;;13.18;100.00;100922.19;5032587;28;20036;-76
2022/04/16 05:04:35;;;;;;;12.57;8.02;;;;;;;13.24;100.00;100915.94;5032309;28;20033;-77
2022/04/16 05:07:21;;;;;;;12.15;6.72;;;;;;;13.46;100.00;100922.34;5032067;28;20026;-76
2022/04/16 05:10:07;;;;;;;15.90;6.90;;;;;;;13.51;100.00;100933.66;5032590;28;20029;-76
2022/04/16 05:12:57;;;;;;;15.95;7.45;;;;;;;13.55;100.00;100927.41;5032297;28;20030;-76
2022/04/16 05:15:43;;;;;;;8.90;7.40;;;;;;;13.55;100.00;100925.63;5035831;28;20026;-76
2022/04/16 05:18:29;;;;;;;10.13;6.60;;;;;;;13.74;100.00;100933.88;5036867;28;20021;-76
2022/04/16 05:21:14;;;;;;;13.43;7.65;;;;;;;13.99;100.00;100935.81;5035901;28;20385;-76
2022/04/16 05:24:01;;;;;;;16.35;7.55;;;;;;;14.04;100.00;100938.34;5036055;28;20040;-76
2022/04/16 05:26:47;;;;;;;13.77;7.50;;;;;;;14.19;100.00;100954.56;5035698;28;20378;-76
2022/04/16 05:29:48;;;;;;;12.80;7.40;;;;;;;14.39;100.00;100968.06;5035807;28;20021;-76
2022/04/16 05:32:34;;;;;;;13.35;8.15;;;;;;;14.47;100.00;100967.88;5037067;28;20060;-76
2022/04/16 05:35:20;;;;;;;12.57;8.65;;;;;;;14.09;100.00;100966.28;5035362;28;20100;-76
2022/04/16 05:38:06;;;;;;;11.98;9.00;;;;;;;14.20;100.00;100977.38;5035738;28;20032;-75
2022/04/16 05:40:51;;;;;;;23.45;13.60;;;;;;;14.13;100.00;100982.88;5036556;28;20361;-76
2022/04/16 05:43:37;;;;;;;27.15;16.40;;;;;;;14.15;100.00;100971.38;5035141;28;20135;-76
2022/04/16 05:46:23;;;;;;;31.20;21.33;;;;;;;13.96;100.00;100975.44;5036286;28;20454;-76
2022/04/16 05:49:09;;;;;;;34.75;21.00;;;;;;;14.05;100.00;100980.44;5035511;28;20441;-76
2022/04/16 05:51:55;;;;;;;31.63;21.60;;;;;;;14.16;100.00;100986.28;5035204;28;20307;-76
2022/04/16 05:54:41;;;;;;;28.40;19.38;;;;;;;14.17;100.00;100985.38;5034863;28;20033;-76
2022/04/16 05:57:28;;;;;;;24.95;17.63;;;;;;;14.33;100.00;100976.16;5035670;28;20122;-76
2022/04/16 06:00:14;;;;;;;23.75;17.52;;;;;;;14.19;100.00;100986.19;5034616;28;20025;-76
2022/04/16 06:03:00;;;;;;;27.38;18.05;;;;;;;14.55;100.00;100981.69;5034235;28;20025;-74
2022/04/16 06:05:46;;;;;;;32.33;19.88;;;;;;;14.43;100.00;100979.41;5037590;28;20029;-76
2022/04/16 06:08:32;;;;;;;30.08;17.65;;;;;;;14.63;100.00;100977.91;5034672;28;20059;-75
2022/04/16 06:11:20;;;;;;;31.00;16.73;;;;;;;14.76;100.00;100986.31;5034701;28;20032;-76
2022/04/16 06:14:05;;;;;;;26.75;15.45;;;;;;;14.83;100.00;100988.72;5034857;28;20025;-76
2022/04/16 06:16:51;;;;;;;22.33;13.82;;;;;;;15.05;100.00;100991.56;5035742;28;20033;-76
2022/04/16 06:19:37;;;;;;;20.45;13.43;;;;;;;15.07;100.00;100995.00;5035470;28;20063;-76
2022/04/16 06:22:22;;;;;;;17.10;12.77;;;;;;;14.81;100.00;100994.94;5035411;28;20414;-75
2022/04/16 06:25:08;;;;;;;17.77;13.35;;;;;;;14.90;100.00;100991.19;5034204;28;20021;-76
2022/04/16 06:27:55;;;;;;;24.08;13.02;;;;;;;15.01;100.00;100989.06;5034721;28;20047;-76
2022/04/16 06:30:41;;;;;;;19.65;12.90;;;;;;;15.01;100.00;100989.94;5035032;28;20327;-77
2022/04/16 06:33:26;;;;;;;18.88;12.32;;;;;;;15.11;100.00;100985.22;5033604;28;20350;-75
2022/04/16 06:36:12;;;;;;;17.63;11.60;;;;;;;15.40;100.00;100988.69;5034580;28;20029;-76
2022/04/16 06:38:58;;;;;;;18.35;11.05;;;;;;;15.57;100.00;100982.84;5034214;28;20053;-76
2022/04/16 06:41:44;;;;;;;21.83;11.23;;;;;;;15.72;100.00;100979.69;5033731;28;20087;-77
2022/04/16 06:44:31;;;;;;;15.75;11.23;;;;;;;15.92;100.00;100972.81;5033136;28;20036;-76
2022/04/16 06:47:17;;;;;;;14.32;10.43;;;;;;;15.97;100.00;100973.50;5034275;28;20049;-76
2022/04/16 06:50:04;;;;;;;17.20;8.98;;;;;;;16.15;100.00;100970.19;5034091;28;20045;-76
2022/04/16 06:52:54;;;;;;;13.93;9.43;;;;;;;16.46;98.29;100968.19;5033569;28;20025;-76
2022/04/16 06:55:43;;;;;;;13.48;9.65;;;;;;;16.54;96.66;100966.13;5034589;28;20029;-76
2022/04/16 06:58:29;;;;;;;17.75;9.48;;;;;;;16.64;94.77;100962.19;5033672;28;20056;-76
2022/04/16 07:01:18;;;;;;;19.30;9.63;;;;;;;16.71;90.74;100971.63;5034057;28;20033;-76
2022/04/16 07:04:04;;;;;;;12.90;9.18;;;;;;;17.00;89.38;100970.50;5033220;28;20022;-76
2022/04/16 07:06:50;;;;;;;18.42;9.73;;;;;;;16.75;89.63;100961.78;5033395;28;20037;-76
2022/04/16 07:09:40;;;;;;;16.60;9.30;;;;;;;17.12;87.32;100962.91;5033249;28;20057;-75
2022/04/16 07:12:26;;;;;;;14.00;9.18;;;;;;;17.75;78.90;100975.31;5034305;28;20022;-76
2022/04/16 07:15:12;;;;;;;15.07;9.57;;;;;;;18.15;74.47;100964.69;5032902;28;20108;-75
2022/04/16 07:17:57;;;;;;;12.35;9.07;;;;;;;18.24;75.21;100965.16;5033647;28;20021;-76
2022/04/16 07:20:43;;;;;;;16.58;9.75;;;;;;;18.14;68.80;100962.97;5033493;28;20020;-76
2022/04/16 07:23:29;;;;;;;18.63;10.45;;;;;;;18.30;65.86;100959.59;5033348;28;20490;-76
2022/04/16 07:26:15;;;;;;;12.75;9.25;;;;;;;18.55;63.88;100959.34;5033021;28;20156;-76
2022/04/16 07:29:00;;;;;;;12.18;8.57;;;;;;;19.18;62.25;100951.81;5033256;28;20072;-75
2022/04/16 07:31:47;;;;;;;11.60;8.40;;;;;;;19.15;61.18;100957.31;5033929;28;20025;-76
2022/04/16 07:34:32;;;;;;;13.73;9.50;;;;;;;19.20;60.64;100957.06;5033681;28;20033;-76
2022/04/16 07:37:18;;;;;;;15.30;9.63;;;;;;;19.04;61.91;100964.06;5033253;28;20029;-77
2022/04/16 07:40:05;;;;;;;12.40;9.63;;;;;;;18.95;62.75;100964.50;5033177;28;20029;-76
2022/04/16 07:42:51;;;;;;;18.63;10.75;;;;;;;18.54;64.53;100973.56;5033187;28;20513;-76
2022/04/16 07:45:36;;;;;;;17.35;10.55;;;;;;;18.97;63.25;100967.97;5032611;28;20029;-75
2022/04/16 07:48:25;;;;;;;12.52;9.48;;;;;;;18.99;65.77;100969.59;5033256;28;20045;-75
2022/04/16 07:51:10;;;;;;;15.32;9.48;;;;;;;19.04;66.51;100964.94;5032489;28;20446;-75
2022/04/16 07:53:57;;;;;;;16.55;9.40;;;;;;;19.09;67.51;100959.41;5032361;28;20025;-74
2022/04/16 07:56:43;;;;;;;22.45;10.13;;;;;;;18.82;67.76;100969.53;5033354;28;20033;-75
2022/04/16 07:59:29;;;;;;;15.65;9.60;;;;;;;19.09;66.73;100976.19;5033091;28;20072;-76
2022/04/16 08:02:15;;;;;;;14.73;9.32;;;;;;;19.31;65.57;100975.16;5032775;28;20394;-76
2022/04/16 08:05:00;;;;;;;13.55;9.45;;;;;;;19.73;64.58;100981.88;5032216;28;20175;-76
2022/04/16 08:07:46;;;;;;;13.13;9.25;;;;;;;19.90;63.01;100975.69;5032673;28;20022;-76
2022/04/16 08:10:34;;;;;;;15.50;9.80;;;;;;;20.39;62.51;100975.75;5032923;28;20095;-76
2022/04/16 08:13:20;;;;;;;14.05;8.73;;;;;;;20.84;59.86;100972.34;5032644;28;20037;-75
2022/04/16 08:16:06;;;;;;;15.80;9.35;;;;;;;20.28;59.75;100972.78;5033528;28;20510;-77
2022/04/16 08:18:53;;;;;;;15.10;9.77;;;;;;;20.46;59.64;100978.94;5033440;28;20463;-77
2022/04/16 08:21:45;;;;;;;13.93;10.18;;;;;;;19.91;60.84;100966.78;5032104;28;20044;-77
2022/04/16 08:27:17;;;;;;;14.95;9.93;;;;;;;20.81;57.92;100956.56;5033128;28;20037;-77
2022/04/16 08:30:03;;;;;;;13.32;9.55;;;;;;;20.74;57.84;100952.53;5032768;28;20076;-75
2022/04/16 08:32:49;;;;;;;17.85;9.95;;;;;;;21.08;55.66;100953.25;5032491;28;20040;-76
2022/04/16 08:35:34;;;;;;;19.17;9.82;;;;;;;21.37;53.73;100955.09;5032970;28;20043;-75
2022/04/16 08:38:20;;;;;;;13.57;9.70;;;;;;;20.96;53.05;100945.06;5031756;28;20029;-77
2022/04/16 08:41:09;;;;;;;11.93;9.23;;;;;;;21.32;53.48;100945.63;5033173;28;20018;-76
2022/04/16 08:43:56;;;;;;;10.95;8.23;;;;;;;21.58;53.00;100940.50;5032186;28;20040;-75
2022/04/16 08:46:42;;;;;;;16.73;9.55;;;;;;;21.85;53.32;100935.34;5033176;28;20356;-76
2022/04/16 08:49:29;;;;;;;21.52;10.27;;;;;;;21.66;52.62;100924.91;5034326;28;20125;-77
2022/04/16 08:52:16;;;;;;;14.73;10.02;;;;;;;21.40;53.22;100928.25;5036061;28;20036;-77
2022/04/16 08:55:06;;;;;;;14.93;9.25;;;;;;;21.23;54.65;100927.53;5035696;28;20112;-77
2022/04/16 08:57:53;;;;;;;13.85;9.50;;;;;;;21.77;52.97;100935.81;5035477;28;20512;-76
2022/04/16 09:00:39;;;;;;;15.18;8.85;;;;;;;21.68;53.07;100933.69;5036384;28;20386;-76
2022/04/16 09:03:32;;;;;;;14.68;9.27;;;;;;;21.90;52.62;100930.63;5035167;28;20025;-77
2022/04/16 09:06:23;;;;;;;17.05;9.85;;;;;;;21.61;53.33;100936.78;5036059;28;20030;-77
2022/04/16 09:09:11;;;;;;;15.27;9.02;;;;;;;21.68;53.59;100936.34;5036191;28;20386;-77
2022/04/16 09:11:57;;;;;;;22.25;12.95;;;;;;;21.61;54.08;100935.00;5036056;28;20450;-76
2022/04/16 09:14:44;;;;;;;14.10;9.40;;;;;;;21.33;55.38;100934.88;5035780;28;20318;-75
2022/04/16 09:17:32;;;;;;;13.45;9.10;;;;;;;21.35;56.31;100925.00;5035438;28;20057;-75
2022/04/16 09:20:18;;;;;;;14.93;10.35;;;;;;;21.74;55.91;100930.66;5034794;28;20032;-76
2022/04/16 09:23:21;;;;;;;15.15;8.98;;;;;;;21.48;55.95;100928.66;5035832;28;20047;-75
2022/04/16 09:26:07;;;;;;;14.00;9.20;;;;;;;21.64;55.19;100917.94;5035799;28;20029;-75
2022/04/16 09:28:54;;;;;;;16.42;8.85;;;;;;;21.89;54.28;100918.22;5035819;28;20124;-75
2022/04/16 09:31:45;;;;;;;16.13;8.43;;;;;;;21.99;53.95;100922.88;5035616;28;20082;-76
2022/04/16 09:34:31;;;;;;;14.90;8.10;;;;;;;21.69;56.33;100916.72;5034805;28;20454;-77
2022/04/16 09:37:17;;;;;;;14.27;8.85;;;;;;;21.63;56.24;100917.09;5035905;28;20464;-76
2022/04/16 09:40:10;;;;;;;13.75;8.73;;;;;;;22.21;54.99;100917.09;5035417;28;20052;-76
2022/04/16 09:42:59;;;;;;;12.38;8.88;;;;;;;22.53;53.51;100908.81;5034851;28;20091;-76
2022/04/16 09:45:45;;;;;;;14.43;8.05;;;;;;;22.20;54.59;100905.59;5034358;28;20107;-75
2022/04/16 09:48:31;;;;;;;11.45;8.20;;;;;;;22.61;54.18;100911.00;5035073;28;20108;-75
2022/04/16 09:51:23;;;;;;;11.20;8.02;;;;;;;22.52;53.53;100908.91;5035596;28;20448;-76
2022/04/16 09:54:09;;;;;;;19.15;7.78;;;;;;;21.79;54.11;100909.91;5035783;28;20037;-77
2022/04/16 09:57:01;;;;;;;12.00;8.00;;;;;;;22.09;53.04;100913.38;5035058;28;20029;-76
2022/04/16 09:59:52;;;;;;;19.77;7.97;;;;;;;22.34;53.05;100905.56;5035424;28;20082;-74
2022/04/16 10:02:40;;;;;;;14.52;8.20;;;;;;;22.10;54.77;100895.56;5035183;28;20028;-76
2022/04/16 10:05:26;;;;;;;11.05;7.88;;;;;;;21.53;55.96;100889.25;5035722;28;20029;-76
2022/04/16 10:08:13;;;;;;;11.77;8.10;;;;;;;21.89;54.50;100887.06;5036074;28;20029;-76
2022/04/16 10:11:03;;;;;;;13.77;7.80;;;;;;;22.42;51.08;100881.06;5034388;28;20040;-75
2022/04/16 10:14:04;;;;;;;10.73;7.45;;;;;;;22.12;51.19;100889.19;5034709;28;20040;-74
2022/04/16 10:17:09;;;;;;;13.43;7.95;;;;;;;22.22;50.70;100874.28;5034300;28;20040;-74
2022/04/16 10:20:07;;;;;;;10.70;7.60;;;;;;;22.49;50.28;100864.56;5034773;28;20021;-76
2022/04/16 10:22:58;;;;;;;14.73;7.70;;;;;;;22.48;51.26;100868.22;5035085;28;20033;-75
2022/04/16 10:25:44;;;;;;;12.15;7.13;;;;;;;22.67;51.16;100867.88;5033785;28;20033;-75
2022/04/16 10:28:40;;;;;;;9.88;6.80;;;;;;;23.03;51.14;100866.31;5035478;28;20026;-76
2022/04/16 10:31:30;;;;;;;12.13;7.90;;;;;;;22.68;51.02;100867.78;5034177;28;20029;-72
2022/04/16 10:34:19;;;;;;;12.18;8.00;;;;;;;22.97;50.92;100866.72;5034969;28;20347;-72
2022/04/16 10:37:07;;;;;;;14.25;8.73;;;;;;;22.78;51.65;100866.22;5034768;28;20045;-71
2022/04/16 10:39:53;;;;;;;14.15;8.05;;;;;;;22.87;52.41;100864.78;5034746;28;20090;-72
2022/04/16 10:42:52;;;;;;;12.82;7.82;;;;;;;22.90;52.88;100865.41;5035038;28;20033;-74
2022/04/16 10:45:56;;;;;;;12.90;8.07;;;;;;;22.89;53.83;100862.84;5032983;28;20029;-73
2022/04/16 10:48:42;;;;;;;13.02;8.43;;;;;;;22.82;53.21;100867.72;5034040;28;20052;-72
2022/04/16 10:51:33;;;;;;;12.55;8.48;;;;;;;22.83;53.13;100868.59;5033668;28;20420;-72
2022/04/16 10:54:28;;;;;;;14.35;9.48;;;;;;;23.52;52.80;100871.06;5034091;28;20045;-72
2022/04/16 10:57:21;;;;;;;12.68;8.15;;;;;;;23.60;52.66;100871.41;5034484;28;20469;-77
2022/04/16 11:00:12;;;;;;;15.50;8.48;;;;;;;23.76;52.67;100872.06;5033957;28;20029;-76
2022/04/16 11:03:17;;;;;;;16.80;7.68;;;;;;;23.67;49.94;100862.88;5033661;28;20029;-76
2022/04/16 11:06:04;;;;;;;12.32;7.22;;;;;;;23.88;47.86;100872.09;5033671;28;20159;-76
2022/04/16 11:08:51;;;;;;;13.40;6.47;;;;;;;24.12;43.77;100877.56;5033606;28;20091;-76
2022/04/16 11:11:38;;;;;;;10.82;6.60;;;;;;;23.65;41.96;100869.25;5033007;28;20038;-77
2022/04/16 11:14:27;;;;;;;16.08;9.18;;;;;;;23.42;41.82;100873.50;5033623;28;20124;-72
2022/04/16 11:17:13;;;;;;;17.33;7.60;;;;;;;23.51;42.11;100869.38;5033767;28;20060;-76
2022/04/16 11:20:04;;;;;;;9.75;7.05;;;;;;;23.52;43.01;100876.41;5033654;28;20018;-79
2022/04/16 11:22:50;;;;;;;11.60;7.55;;;;;;;23.79;42.64;100877.22;5033615;28;20029;-76
2022/04/16 11:34:56;;;;;;;17.40;8.20;;;;;;;23.85;46.61;100871.41;5033367;28;20111;-78
2022/04/16 11:37:42;;;;;;;11.65;8.02;;;;;;;23.95;45.77;100862.66;5034155;28;20113;-79
2022/04/16 11:40:32;;;;;;;12.60;8.25;;;;;;;23.82;47.36;100866.31;5033019;28;20018;-78
2022/04/16 11:43:21;;;;;;;18.33;10.95;;;;;;;24.16;47.69;100863.84;5032804;28;20104;-79
2022/04/16 11:46:14;;;;;;;14.60;8.90;;;;;;;24.40;46.94;100846.03;5033782;28;20064;-80
2022/04/16 11:49:00;;;;;;;14.68;8.40;;;;;;;24.73;46.47;100853.44;5033516;28;20108;-76
2022/04/16 11:51:47;;;;;;;16.33;7.75;;;;;;;24.33;47.25;100834.03;5032905;28;20358;-76
2022/04/16 11:54:33;;;;;;;10.00;7.60;;;;;;;24.48;46.26;100830.25;5033004;28;20043;-76
2022/04/16 11:57:19;;;;;;;12.23;8.00;;;;;;;24.70;44.90;100835.78;5032844;28;20434;-76
2022/04/16 12:00:08;;;;;;;13.57;7.85;;;;;;;24.38;44.15;100829.19;5032406;28;20029;-76
2022/04/16 12:02:57;;;;;;;9.85;7.07;;;;;;;24.69;42.72;100843.91;5033262;28;20037;-76
2022/04/16 12:05:43;;;;;;;12.73;6.90;;;;;;;24.45;43.43;100837.63;5032393;28;20041;-76
2022/04/16 12:08:31;;;;;;;13.95;7.97;;;;;;;24.59;42.67;100832.97;5033134;28;20040;-76
2022/04/16 12:11:21;;;;;;;13.10;7.55;;;;;;;24.69;42.27;100830.53;5033270;28;20096;-76
2022/04/16 12:14:17;;;;;;;10.85;7.07;;;;;;;24.78;41.78;100827.16;5032502;28;20132;-76
2022/04/16 12:17:02;;;;;;;12.05;7.40;;;;;;;24.96;41.10;100820.44;5033705;28;20037;-78
2022/04/16 12:20:09;;;;;;;10.43;8.30;;;;;;;24.56;41.88;100816.28;5037459;28;20051;-77
2022/04/16 12:22:59;;;;;;;13.70;8.70;;;;;;;24.27;42.39;100813.03;5038663;28;20053;-77
2022/04/16 12:25:45;;;;;;;19.60;11.20;;;;;;;24.38;43.03;100815.81;5044074;28;20044;-78
2022/04/16 12:28:36;;;;;;;15.75;7.75;;;;;;;24.42;42.89;100819.09;5037972;28;20104;-77
2022/04/16 12:31:29;;;;;;;13.43;7.80;;;;;;;24.64;43.46;100819.28;5040885;28;20037;-77
2022/04/16 12:34:15;;;;;;;12.05;7.60;;;;;;;24.43;43.72;100821.69;5041267;28;20385;-76
2022/04/16 12:37:01;;;;;;;11.95;7.68;;;;;;;24.48;42.40;100816.88;5040104;28;20454;-77
2022/04/16 12:39:48;;;;;;;9.70;6.57;;;;;;;24.65;40.49;100808.47;5041589;28;20419;-76
2022/04/16 12:42:35;;;;;;;10.38;7.35;;;;;;;24.40;43.07;100815.69;5039244;28;20033;-78
2022/04/16 12:45:22;;;;;;;14.10;8.07;;;;;;;24.39;44.06;100804.13;5038834;28;20025;-77
2022/04/16 12:48:08;;;;;;;12.38;7.65;;;;;;;24.38;44.11;100809.56;5037223;28;20049;-77
2022/04/16 12:50:54;;;;;;;10.77;6.75;;;;;;;24.45;43.14;100803.69;5036232;28;20101;-77
2022/04/16 12:53:40;;;;;;;10.43;6.72;;;;;;;24.75;42.31;100805.97;5035969;28;20436;-77
2022/04/16 12:56:26;;;;;;;13.23;7.57;;;;;;;24.48;42.51;100800.78;5037718;28;20485;-76
2022/04/16 12:59:12;;;;;;;11.20;7.70;;;;;;;24.55;42.93;100799.34;5043231;28;20025;-78
2022/04/16 13:01:58;;;;;;;13.43;7.70;;;;;;;24.60;43.15;100804.38;5038460;28;20079;-77
2022/04/16 13:04:43;;;;;;;14.88;6.82;;;;;;;24.98;42.43;100791.66;5037865;28;20041;-77
2022/04/16 13:07:29;;;;;;;10.68;6.80;;;;;;;24.17;43.84;100795.94;5036091;28;20108;-77